createdAt,value
2022-08-07T00:02:36.200Z,19.50
2022-08-07T00:04:16.641Z,19.50
2022-08-07T00:06:53.008Z,19.50
2022-08-07T00:09:29.118Z,19.50
2022-08-07T00:12:02.602Z,19.40
2022-08-07T00:14:32.175Z,19.20
2022-08-07T00:17:01.579Z,19.20
2022-08-07T00:19:59.701Z,19.20
2022-08-07T00:22:24.409Z,19.20
2022-08-07T00:25:05.208Z,19.00
2022-08-07T00:27:35.740Z,18.80
2022-08-07T00:30:27.556Z,18.00
2022-08-07T00:32:58.276Z,17.50
2022-08-07T00:35:29.942Z,17.80
2022-08-07T00:37:58.668Z,17.50
2022-08-07T00:40:40.024Z,17.60
2022-08-07T00:43:10.517Z,17.90
2022-08-07T00:46:00.393Z,17.80
2022-08-07T00:48:30.962Z,18.00
2022-08-07T00:51:01.338Z,18.20
2022-08-07T00:53:39.075Z,18.40
2022-08-07T00:56:18.329Z,18.50
2022-08-07T00:58:49.761Z,18.00
2022-08-07T01:01:21.516Z,17.50
2022-08-07T01:03:56.121Z,17.80
2022-08-07T01:06:28.977Z,18.10
2022-08-07T01:09:00.677Z,18.10
2022-08-07T01:12:24.006Z,18.20
2022-08-07T01:14:21.168Z,18.30
2022-08-07T01:16:59.255Z,18.40
2022-08-07T01:19:32.391Z,18.30
2022-08-07T01:22:03.740Z,18.30
2022-08-07T01:24:42.924Z,18.30
2022-08-07T01:27:19.986Z,18.30
2022-08-07T01:29:50.563Z,18.30
2022-08-07T01:32:22.555Z,18.30
2022-08-07T01:34:53.966Z,18.20
2022-08-07T01:37:23.857Z,18.30
2022-08-07T01:39:59.070Z,18.10
2022-08-07T01:42:38.493Z,18.00
2022-08-07T01:45:17.762Z,18.00
2022-08-07T01:48:18.996Z,17.90
2022-08-07T01:50:43.327Z,18.00
2022-08-07T01:53:21.034Z,18.00
2022-08-07T01:55:59.929Z,18.00
2022-08-07T01:58:33.917Z,17.60
2022-08-07T02:01:58.915Z,17.60
2022-08-07T02:04:26.668Z,17.50
2022-08-07T02:07:00.027Z,16.60
2022-08-07T02:09:51.976Z,16.80
2022-08-07T02:12:30.998Z,17.10
2022-08-07T02:15:05.884Z,17.20
2022-08-07T02:17:41.972Z,17.40
2022-08-07T02:20:23.405Z,17.40
2022-08-07T02:22:57.552Z,17.00
2022-08-07T02:26:10.205Z,17.10
2022-08-07T02:28:24.520Z,17.10
2022-08-07T02:30:56.103Z,17.10
2022-08-07T02:33:32.909Z,16.30
2022-08-07T02:36:28.752Z,16.40
2022-08-07T02:39:16.218Z,16.60
2022-08-07T02:41:54.916Z,16.90
2022-08-07T02:44:34.642Z,17.10
2022-08-07T02:47:07.947Z,17.10
2022-08-07T02:49:57.568Z,17.20
2022-08-07T02:52:37.254Z,17.20
2022-08-07T02:55:27.368Z,17.20
2022-08-07T02:58:04.119Z,17.10
2022-08-07T03:00:35.548Z,17.10
2022-08-07T03:03:07.510Z,17.10
2022-08-07T03:05:46.139Z,17.00
2022-08-07T03:08:17.881Z,17.00
2022-08-07T03:10:56.518Z,17.00
2022-08-07T03:13:38.770Z,17.00
2022-08-07T03:16:09.462Z,17.00
2022-08-07T03:18:38.335Z,17.00
2022-08-07T03:21:11.264Z,17.00
2022-08-07T03:24:18.387Z,16.90
2022-08-07T03:26:34.995Z,16.90
2022-08-07T03:29:11.365Z,16.80
2022-08-07T03:31:49.941Z,16.70
2022-08-07T03:34:22.585Z,16.60
2022-08-07T03:36:58.312Z,16.60
2022-08-07T03:39:46.447Z,16.60
2022-08-07T03:42:19.945Z,16.70
2022-08-07T03:44:53.845Z,16.60
2022-08-07T03:47:29.626Z,16.60
2022-08-07T03:50:17.496Z,16.60
2022-08-07T03:52:53.754Z,16.60
2022-08-07T03:55:23.635Z,16.60
2022-08-07T03:59:05.242Z,16.60
2022-08-07T04:01:07.629Z,16.50
2022-08-07T04:03:53.689Z,16.60
2022-08-07T04:06:37.660Z,16.60
2022-08-07T04:09:15.217Z,16.60
2022-08-07T04:12:26.622Z,16.50
2022-08-07T04:14:43.815Z,16.50
2022-08-07T04:17:21.525Z,16.50
2022-08-07T04:19:54.439Z,16.40
2022-08-07T04:22:29.549Z,16.40
2022-08-07T04:25:02.260Z,16.40
2022-08-07T04:27:39.250Z,16.40
2022-08-07T04:30:35.756Z,16.30
2022-08-07T04:33:13.985Z,16.30
2022-08-07T04:35:50.940Z,16.30
2022-08-07T04:38:22.917Z,16.30
2022-08-07T04:40:56.501Z,16.20
2022-08-07T04:44:11.993Z,16.20
2022-08-07T04:47:03.897Z,16.20
2022-08-07T04:49:57.483Z,16.30
2022-08-07T04:52:35.587Z,16.20
2022-08-07T04:55:15.593Z,16.20
2022-08-07T04:58:38.840Z,16.20
2022-08-07T05:01:05.245Z,16.20
2022-08-07T05:04:06.831Z,16.20
2022-08-07T05:06:51.776Z,16.20
2022-08-07T05:09:45.455Z,16.20
2022-08-07T05:12:27.292Z,16.20
2022-08-07T05:15:21.727Z,16.20
2022-08-07T05:18:00.538Z,16.20
2022-08-07T05:20:35.960Z,16.20
2022-08-07T05:23:15.526Z,16.30
2022-08-07T05:26:10.938Z,16.30
2022-08-07T05:28:40.566Z,16.10
2022-08-07T05:31:14.618Z,16.30
2022-08-07T05:33:51.368Z,16.30
2022-08-07T05:36:36.081Z,16.40
2022-08-07T05:40:14.188Z,16.30
2022-08-07T05:42:07.539Z,16.30
2022-08-07T05:44:52.870Z,16.50
2022-08-07T05:47:38.491Z,16.30
2022-08-07T05:50:19.683Z,16.10
2022-08-07T05:52:49.250Z,16.20
2022-08-07T05:55:19.762Z,16.30
2022-08-07T05:57:49.153Z,16.30
2022-08-07T06:00:19.712Z,16.00
2022-08-07T06:02:58.863Z,16.10
2022-08-07T06:05:31.377Z,16.00
2022-08-07T06:08:29.788Z,15.80
2022-08-07T06:10:56.544Z,16.00
2022-08-07T06:14:10.497Z,16.00
2022-08-07T06:16:17.526Z,15.90
2022-08-07T06:18:51.702Z,15.90
2022-08-07T06:22:15.646Z,16.10
2022-08-07T06:24:52.187Z,16.30
2022-08-07T06:27:04.426Z,16.00
2022-08-07T06:29:35.136Z,16.00
2022-08-07T06:32:08.479Z,15.90
2022-08-07T06:34:36.699Z,15.80
2022-08-07T06:37:09.576Z,15.90
2022-08-07T06:40:16.390Z,16.00
2022-08-07T06:42:37.528Z,16.20
2022-08-07T06:45:18.298Z,16.30
2022-08-07T06:47:58.546Z,16.30
2022-08-07T06:50:36.063Z,16.50
2022-08-07T06:53:07.194Z,16.50
2022-08-07T06:56:01.213Z,16.40
2022-08-07T06:58:35.759Z,16.50
2022-08-07T07:01:12.300Z,16.60
2022-08-07T07:03:48.593Z,16.60
2022-08-07T07:06:23.843Z,16.80
2022-08-07T07:08:54.769Z,16.90
2022-08-07T07:12:08.389Z,17.10
2022-08-07T07:14:18.899Z,17.00
2022-08-07T07:16:53.658Z,17.00
2022-08-07T07:19:56.002Z,17.10
2022-08-07T07:22:35.661Z,17.30
2022-08-07T07:26:30.502Z,17.40
2022-08-07T07:28:03.402Z,17.50
2022-08-07T07:30:41.518Z,17.50
2022-08-07T07:33:14.000Z,17.70
2022-08-07T07:36:04.693Z,17.80
2022-08-07T07:38:36.068Z,17.90
2022-08-07T07:41:08.735Z,18.00
2022-08-07T07:43:48.116Z,18.00
2022-08-07T07:46:39.998Z,18.10
2022-08-07T07:50:35.668Z,18.30
2022-08-07T07:52:12.995Z,18.30
2022-08-07T07:54:50.472Z,18.40
2022-08-07T07:57:43.547Z,18.70
2022-08-07T08:00:20.811Z,18.80
2022-08-07T08:03:06.258Z,18.90
2022-08-07T08:05:51.096Z,19.10
2022-08-07T08:08:34.372Z,19.40
2022-08-07T08:11:08.438Z,19.40
2022-08-07T08:13:52.846Z,19.50
2022-08-07T08:16:30.096Z,19.60
2022-08-07T08:19:17.782Z,19.70
2022-08-07T08:22:10.918Z,19.70
2022-08-07T08:25:18.359Z,19.90
2022-08-07T08:27:56.276Z,19.90
2022-08-07T08:30:28.043Z,19.90
2022-08-07T08:33:00.544Z,20.10
2022-08-07T08:35:43.135Z,20.20
2022-08-07T08:38:29.602Z,20.40
2022-08-07T08:41:06.578Z,20.40
2022-08-07T08:43:56.192Z,20.50
2022-08-07T08:46:38.222Z,20.70
2022-08-07T08:49:13.912Z,20.60
2022-08-07T08:52:13.459Z,20.80
2022-08-07T08:54:48.538Z,21.00
2022-08-07T08:57:27.212Z,21.20
2022-08-07T09:00:05.114Z,21.30
2022-08-07T09:02:41.927Z,21.40
2022-08-07T09:05:37.660Z,21.50
2022-08-07T09:08:24.362Z,21.50
2022-08-07T09:11:05.505Z,21.70
2022-08-07T09:13:43.079Z,21.90
2022-08-07T09:16:29.867Z,22.00
2022-08-07T09:19:52.635Z,21.90
2022-08-07T09:24:28.170Z,22.20
2022-08-07T09:25:17.492Z,22.30
2022-08-07T09:28:00.107Z,22.40
2022-08-07T09:30:44.158Z,22.60
2022-08-07T09:33:52.639Z,22.50
2022-08-07T09:36:26.998Z,22.70
2022-08-07T09:39:18.235Z,22.70
2022-08-07T09:42:07.712Z,22.60
2022-08-07T09:47:24.494Z,23.00
2022-08-07T09:47:58.880Z,23.00
2022-08-07T09:50:52.368Z,23.40
2022-08-07T09:53:23.563Z,23.20
2022-08-07T09:56:19.782Z,23.40
2022-08-07T09:59:29.415Z,23.80
2022-08-07T10:02:35.816Z,23.80
2022-08-07T10:06:00.826Z,23.70
2022-08-07T10:08:45.283Z,23.90
2022-08-07T10:12:01.990Z,23.90
2022-08-07T10:15:08.368Z,23.90
2022-08-07T10:18:03.494Z,24.20
2022-08-07T10:20:50.395Z,24.00
2022-08-07T10:24:04.748Z,24.40
2022-08-07T10:26:53.242Z,24.30
2022-08-07T10:30:03.879Z,24.30
2022-08-07T10:33:06.199Z,24.30
2022-08-07T10:35:55.206Z,24.60
2022-08-07T10:38:50.019Z,24.60
2022-08-07T10:41:46.321Z,24.90
2022-08-07T10:44:37.861Z,24.70
2022-08-07T10:47:27.192Z,24.80
2022-08-07T10:50:15.408Z,25.00
2022-08-07T10:52:54.269Z,25.40
2022-08-07T10:55:38.631Z,25.10
2022-08-07T10:58:32.000Z,25.10
2022-08-07T11:01:51.908Z,25.20
2022-08-07T11:04:45.678Z,25.50
2022-08-07T11:07:58.751Z,25.40
2022-08-07T11:10:20.703Z,25.70
2022-08-07T11:13:01.910Z,25.80
2022-08-07T11:15:34.282Z,25.70
2022-08-07T11:18:12.561Z,25.50
2022-08-07T11:20:49.723Z,26.00
2022-08-07T11:23:36.624Z,25.90
2022-08-07T11:26:14.765Z,25.90
2022-08-07T11:28:53.362Z,25.80
2022-08-07T11:31:30.509Z,25.80
2022-08-07T11:34:12.959Z,26.20
2022-08-07T11:36:56.735Z,26.10
2022-08-07T11:40:00.341Z,26.20
2022-08-07T11:42:37.808Z,26.30
2022-08-07T11:45:20.482Z,26.50
2022-08-07T11:48:18.085Z,26.40
2022-08-07T11:51:45.054Z,26.70
2022-08-07T11:54:22.203Z,26.50
2022-08-07T11:57:04.371Z,27.00
2022-08-07T12:00:10.534Z,26.90
2022-08-07T12:03:41.681Z,26.90
2022-08-07T12:06:39.716Z,26.90
2022-08-07T12:09:26.184Z,27.00
2022-08-07T12:12:10.725Z,26.80
2022-08-07T12:14:56.110Z,27.20
2022-08-07T12:17:38.819Z,27.20
2022-08-07T12:20:20.911Z,27.00
2022-08-07T12:24:06.403Z,27.50
2022-08-07T12:26:33.601Z,27.40
2022-08-07T12:29:13.892Z,27.70
2022-08-07T12:31:53.167Z,27.60
2022-08-07T12:34:37.409Z,27.40
2022-08-07T12:37:08.176Z,27.60
2022-08-07T12:39:43.637Z,27.40
2022-08-07T12:42:27.561Z,27.50
2022-08-07T12:44:59.727Z,27.60
2022-08-07T12:47:40.811Z,27.30
2022-08-07T12:50:38.676Z,27.50
2022-08-07T12:53:18.032Z,27.70
2022-08-07T12:56:02.556Z,27.70
2022-08-07T12:58:39.358Z,27.90
2022-08-07T13:01:16.771Z,27.70
2022-08-07T13:04:05.801Z,28.00
2022-08-07T13:07:07.572Z,27.70
2022-08-07T13:10:21.959Z,27.70
2022-08-07T13:12:50.579Z,27.90
2022-08-07T13:15:31.882Z,27.90
2022-08-07T13:18:26.684Z,27.90
2022-08-07T13:21:07.135Z,27.90
2022-08-07T13:24:01.753Z,28.20
2022-08-07T13:26:41.857Z,28.20
2022-08-07T13:29:19.420Z,28.40
2022-08-07T13:31:59.827Z,28.30
2022-08-07T13:34:39.553Z,28.50
2022-08-07T13:37:21.580Z,28.30
2022-08-07T13:40:35.883Z,28.10
2022-08-07T13:42:53.869Z,28.20
2022-08-07T13:46:12.000Z,28.10
2022-08-07T13:48:27.477Z,28.40
2022-08-07T13:51:27.352Z,28.10
2022-08-07T13:54:01.478Z,28.30
2022-08-07T13:56:40.539Z,28.10
2022-08-07T13:59:16.750Z,28.10
2022-08-07T14:01:51.363Z,28.20
2022-08-07T14:04:48.947Z,28.10
2022-08-07T14:07:23.603Z,28.20
2022-08-07T14:10:01.894Z,28.50
2022-08-07T14:12:49.144Z,28.40
2022-08-07T14:15:31.733Z,28.20
2022-08-07T14:18:27.444Z,28.40
2022-08-07T14:21:07.861Z,28.40
2022-08-07T14:24:00.391Z,28.20
2022-08-07T14:26:37.322Z,28.40
2022-08-07T14:30:09.588Z,28.50
2022-08-07T14:32:02.389Z,28.50
2022-08-07T14:34:34.480Z,28.20
2022-08-07T14:37:19.439Z,28.10
2022-08-07T14:40:17.391Z,28.20
2022-08-07T14:43:00.628Z,28.40
2022-08-07T14:45:48.652Z,28.40
2022-08-07T14:48:20.193Z,28.40
2022-08-07T14:50:51.815Z,28.20
2022-08-07T14:54:05.532Z,28.20
2022-08-07T14:56:15.609Z,28.20
2022-08-07T14:59:13.759Z,28.20
2022-08-07T15:01:54.172Z,28.40
2022-08-07T15:04:28.903Z,28.20
2022-08-07T15:07:00.927Z,28.00
2022-08-07T15:09:58.837Z,28.10
2022-08-07T15:18:28.543Z,28.20
2022-08-07T15:21:07.924Z,28.10
2022-08-07T15:25:14.757Z,28.40
2022-08-07T15:32:38.873Z,28.40
2022-08-07T15:38:29.816Z,28.10
2022-08-07T15:41:00.402Z,28.10
2022-08-07T15:43:56.410Z,28.30
2022-08-07T15:46:31.660Z,28.20
2022-08-07T15:49:13.162Z,28.10
2022-08-07T15:54:39.510Z,28.10
2022-08-07T15:57:40.306Z,27.90
2022-08-07T16:00:04.433Z,28.00
2022-08-07T16:02:41.644Z,28.00
2022-08-07T16:05:19.734Z,28.00
2022-08-07T16:08:33.590Z,27.90
2022-08-07T16:10:47.285Z,28.00
2022-08-07T16:13:58.440Z,28.00
2022-08-07T16:16:47.826Z,27.90
2022-08-07T16:19:42.519Z,28.00
2022-08-07T16:22:36.336Z,27.90
2022-08-07T16:25:23.096Z,27.90
2022-08-07T16:29:18.832Z,27.90
2022-08-07T16:31:51.394Z,27.90
2022-08-07T16:34:24.565Z,27.80
2022-08-07T16:38:04.038Z,27.70
2022-08-07T16:40:56.956Z,27.70
2022-08-07T16:44:05.759Z,27.90
2022-08-07T16:47:07.706Z,27.70
2022-08-07T16:54:02.639Z,27.60
2022-08-07T16:56:08.881Z,27.60
2022-08-07T16:59:14.322Z,27.50
2022-08-07T17:01:56.768Z,27.50
2022-08-07T17:04:36.855Z,27.50
2022-08-07T17:07:51.318Z,27.50
2022-08-07T17:10:30.169Z,27.50
2022-08-07T17:13:18.068Z,27.40
2022-08-07T17:15:55.365Z,27.50
2022-08-07T17:18:33.236Z,27.50
2022-08-07T17:21:04.803Z,27.40
2022-08-07T17:23:58.174Z,27.40
2022-08-07T17:26:50.083Z,27.30
2022-08-07T17:30:14.824Z,27.20
2022-08-07T17:32:30.627Z,27.10
2022-08-07T17:35:51.177Z,27.10
2022-08-07T17:38:06.615Z,27.10
2022-08-07T17:40:50.620Z,27.00
2022-08-07T17:44:00.903Z,27.00
2022-08-07T17:46:34.581Z,27.00
2022-08-07T17:49:11.136Z,26.90
2022-08-07T17:51:49.673Z,26.90
2022-08-07T17:54:53.177Z,26.80
2022-08-07T17:57:56.222Z,26.80
2022-08-07T18:00:34.674Z,26.70
2022-08-07T18:03:19.203Z,26.70
2022-08-07T18:06:02.817Z,26.50
2022-08-07T18:09:01.077Z,26.50
2022-08-07T18:12:07.938Z,26.40
2022-08-07T18:14:33.101Z,26.40
2022-08-07T18:18:36.528Z,26.30
2022-08-07T18:21:06.022Z,26.20
2022-08-07T18:23:42.359Z,26.20
2022-08-07T18:26:05.406Z,26.20
2022-08-07T18:29:03.542Z,26.00
2022-08-07T18:31:50.275Z,25.90
2022-08-07T18:34:40.971Z,25.90
2022-08-07T18:38:56.908Z,25.90
2022-08-07T18:40:40.527Z,25.80
2022-08-07T18:43:15.961Z,25.60
2022-08-07T18:46:25.669Z,25.60
2022-08-07T18:50:34.974Z,25.50
2022-08-07T18:52:34.310Z,25.50
2022-08-07T18:54:49.790Z,25.40
2022-08-07T18:57:31.449Z,25.30
2022-08-07T19:00:34.570Z,25.30
2022-08-07T19:03:12.310Z,25.20
2022-08-07T19:06:03.482Z,25.10
2022-08-07T19:08:47.118Z,25.00
2022-08-07T19:11:36.711Z,25.10
2022-08-07T19:14:16.654Z,25.00
2022-08-07T19:17:04.195Z,25.10
2022-08-07T19:19:53.242Z,25.20
2022-08-07T19:22:30.849Z,25.30
2022-08-07T19:25:05.542Z,25.50
2022-08-07T19:28:58.102Z,25.70
2022-08-07T19:31:01.923Z,25.70
2022-08-07T19:33:34.715Z,25.90
2022-08-07T19:36:08.894Z,25.80
2022-08-07T19:38:52.866Z,25.90
2022-08-07T19:41:39.287Z,25.90
2022-08-07T19:44:21.154Z,25.80
2022-08-07T19:46:55.750Z,25.80
2022-08-07T19:49:58.102Z,25.80
2022-08-07T19:52:19.848Z,25.70
2022-08-07T19:54:56.323Z,25.70
2022-08-07T19:58:01.572Z,25.60
2022-08-07T20:00:29.135Z,24.90
2022-08-07T20:03:03.338Z,23.90
2022-08-07T20:06:01.136Z,23.10
2022-08-07T20:08:29.076Z,23.20
2022-08-07T20:11:03.877Z,23.90
2022-08-07T20:13:44.434Z,24.20
2022-08-07T20:16:34.884Z,24.50
2022-08-07T20:19:10.461Z,24.60
2022-08-07T20:21:46.993Z,24.60
2022-08-07T20:24:19.951Z,24.60
2022-08-07T20:26:52.112Z,24.60
2022-08-07T20:29:49.187Z,24.60
2022-08-07T20:32:22.343Z,24.40
2022-08-07T20:34:54.469Z,24.50
2022-08-07T20:37:33.946Z,24.50
2022-08-07T20:40:32.887Z,24.50
2022-08-07T20:42:57.947Z,24.40
2022-08-07T20:46:28.096Z,24.30
2022-08-07T20:48:28.606Z,24.20
2022-08-07T20:51:00.167Z,24.00
2022-08-07T20:54:03.879Z,23.20
2022-08-07T20:56:25.795Z,22.10
2022-08-07T20:58:58.698Z,21.80
2022-08-07T21:01:45.412Z,21.90
2022-08-07T21:04:22.696Z,22.40
2022-08-07T21:06:56.863Z,22.70
2022-08-07T21:09:51.659Z,22.80
2022-08-07T21:12:25.923Z,23.00
2022-08-07T21:15:00.877Z,23.00
2022-08-07T21:18:20.879Z,22.70
2022-08-07T21:20:29.874Z,22.50
2022-08-07T21:23:08.500Z,21.80
2022-08-07T21:25:56.683Z,20.70
2022-08-07T21:28:48.406Z,21.40
2022-08-07T21:31:49.326Z,21.80
2022-08-07T21:34:21.324Z,22.20
2022-08-07T21:37:05.373Z,22.30
2022-08-07T21:39:46.568Z,21.80
2022-08-07T21:42:43.009Z,22.00
2022-08-07T21:46:04.736Z,21.80
2022-08-07T21:48:28.692Z,22.00
2022-08-07T21:51:19.545Z,21.60
2022-08-07T21:53:54.647Z,20.70
2022-08-07T21:56:39.649Z,20.40
2022-08-07T21:59:15.552Z,20.70
2022-08-07T22:02:10.226Z,20.70
2022-08-07T22:04:53.950Z,21.10
2022-08-07T22:07:35.707Z,20.80
2022-08-07T22:10:20.267Z,21.10
2022-08-07T22:12:54.791Z,20.90
2022-08-07T22:16:44.881Z,20.30
2022-08-07T22:18:23.857Z,20.60
2022-08-07T22:20:58.850Z,21.10
2022-08-07T22:23:40.183Z,21.40
2022-08-07T22:26:16.247Z,21.50
2022-08-07T22:28:54.591Z,21.50
2022-08-07T22:31:55.969Z,21.60
2022-08-07T22:34:28.643Z,21.60
2022-08-07T22:37:09.401Z,21.60
2022-08-07T22:39:53.451Z,21.60
2022-08-07T22:42:29.327Z,21.50
2022-08-07T22:45:02.422Z,21.50
2022-08-07T22:48:03.619Z,21.40
2022-08-07T22:51:06.535Z,21.30
2022-08-07T22:54:07.902Z,21.30
2022-08-07T22:56:50.555Z,21.20
2022-08-07T22:59:46.916Z,21.20
2022-08-07T23:02:46.135Z,21.10
2022-08-07T23:06:09.554Z,20.50
2022-08-07T23:08:42.058Z,20.60
2022-08-07T23:11:44.311Z,20.80
2022-08-07T23:14:34.043Z,20.90
2022-08-07T23:17:21.659Z,20.90
2022-08-07T23:20:18.898Z,20.90
2022-08-07T23:22:57.389Z,20.90
2022-08-07T23:25:35.498Z,20.80
2022-08-07T23:28:28.703Z,20.70
2022-08-07T23:31:42.751Z,20.30
2022-08-07T23:34:38.111Z,20.40
2022-08-07T23:37:32.982Z,20.20
2022-08-07T23:40:24.015Z,20.30
2022-08-07T23:43:20.055Z,20.30
2022-08-07T23:46:03.434Z,20.30
2022-08-07T23:49:07.584Z,20.30
2022-08-07T23:52:59.513Z,20.10
2022-08-07T23:54:45.878Z,20.20
2022-08-07T23:57:19.958Z,20.20
